La Coste, Texas
Current Conditions -  °F | °C
As of 10:35 PM on Monday 20 Oct 2014 (Local Time) from KCVB Reporting Station
Clear Clear  
Wind Chill: 73°   Ceiling: Unl
Heat Index: 73°   Visibility: 10mi
Dew Point: 56°   Wind: 5mph
Humidity: 54%   Direction: 90°E
Pressure: 30.04"   Gusts: NA
Location:  29.31°N, 98.81°W
Report Text: KCVB 210335Z AUTO 09004KT 10SM CLR 23/13 A3004 RMK AO2 T02300132
Loading
Personal Weather Stations






























Interactive Weather Map
Tropical Storm Tracking
New forecast layout! Learn more

10-Day Weather Forecast

Advertisements
Track Severe Weather on mobile